Lilly, Illinois
Current Conditions -  °F | °C
As of 7:56 AM on Monday 20 Oct 2014 (Local Time) from KBMI Reporting Station
Clear Clear  
Wind Chill: 10°   Ceiling: Unl
Heat Index: 10°   Visibility: 10mi
Dew Point:   Wind: 10mph
Humidity: 89%   Direction: 240°WSW
Pressure: 29.89"   Gusts: NA
Location:  40.5282°N, 89.3251°W
Report Text: KBMI 201256Z 24009KT 10SM CLR 10/08 A2989 RMK AO2 T01000083 SLP122
Loading
Personal Weather Stations






























Interactive Weather Map
Tropical Storm Tracking
New forecast layout! Learn more

10-Day Weather Forecast

Advertisements
Track Severe Weather on mobile